Terminal Aerodrome Forecast
Issued by NWS

Home | Current Version | Previous Version | Text Only | Print | Product List | Glossary On
Versions: 1 2 3 4 5 6 7 8 9 10 11 12 13 14 15 16 17 18 19 20 21
000
FTUS43 KICT 272320
TAFSLN
TAF
KSLN 272320Z 2800/2824 16018G25KT P6SM SCT100 BKN200
     FM280100 17015G21KT P6SM VCTS SCT040CB BKN080
      TEMPO 2801/2804 -TSRA BKN040CB
     FM280400 17014G21KT 6SM -TSRA BKN035CB
     FM281200 21011KT P6SM VCTS BKN050CB=

USA.gov is the U.S. government's official web portal to all federal, state and local government web resources and services.